Time;durP1;ratioP1;P1;durP2;ratioP2;P2;SDS_P1;SDS_P2;PMS_P1;PMS_P2;Temp;Humidity;BMP_temperature;BMP_pressure;BME280_temperature;BME280_humidity;BME280_pressure;Samples;Min_cycle;Max_cycle;Signal;HPM_P1;HPM_P2
2023/06/01 00:00:15;;;;;;;;;;;14.90;61.10;;;;;;5054639;28;19909;-65
2023/06/01 00:02:41;;;;;;;;;;;15.00;61.00;;;;;;5054711;28;20429;-64
2023/06/01 00:05:07;;;;;;;;;;;15.10;60.90;;;;;;5054682;28;19915;-65
2023/06/01 00:07:32;;;;;;;;;;;15.20;60.90;;;;;;5036614;28;19917;-64
2023/06/01 00:09:59;;;;;;;;;;;15.20;61.10;;;;;;5054820;28;19913;-64
2023/06/01 00:12:25;;;;;;;;;;;15.20;60.90;;;;;;5054814;28;20372;-64
2023/06/01 00:14:50;;;;;;;;;;;15.30;60.80;;;;;;5054581;28;19909;-64
2023/06/01 00:17:16;;;;;;;;;;;15.30;60.70;;;;;;5054649;28;19917;-64
2023/06/01 00:19:44;;;;;;;;;;;15.30;60.50;;;;;;5054179;28;19920;-66
2023/06/01 00:22:10;;;;;;;;;;;15.40;60.30;;;;;;5054283;28;19929;-64
2023/06/01 00:24:36;;;;;;;;;;;15.40;60.10;;;;;;5054427;28;19909;-64
2023/06/01 00:27:02;;;;;;;;;;;15.40;60.00;;;;;;5054457;28;19927;-64
2023/06/01 00:29:27;;;;;;;;;;;15.40;60.00;;;;;;5054056;28;19923;-64
2023/06/01 00:31:53;;;;;;;;;;;15.40;60.00;;;;;;5054128;28;19916;-64
2023/06/01 00:34:18;;;;;;;;;;;15.40;59.90;;;;;;5054165;28;19916;-65
2023/06/01 00:36:44;;;;;;;;;;;15.40;59.90;;;;;;5044527;28;19928;-64
2023/06/01 00:39:09;;;;;;;;;;;15.40;59.80;;;;;;5054088;28;20007;-66
2023/06/01 00:41:34;;;;;;;;;;;15.40;59.70;;;;;;5054036;28;19919;-64
2023/06/01 00:44:00;;;;;;;;;;;15.40;59.60;;;;;;5053873;28;19913;-64
2023/06/01 00:46:26;;;;;;;;;;;15.50;59.50;;;;;;5052377;28;19959;-64
2023/06/01 00:48:52;;;;;;;;;;;15.50;59.30;;;;;;5053641;28;19955;-64
2023/06/01 00:51:17;;;;;;;;;;;15.50;59.20;;;;;;5053875;28;19975;-65
2023/06/01 00:53:43;;;;;;;;;;;15.50;59.10;;;;;;5053769;28;20015;-65
2023/06/01 00:56:11;;;;;;;;;;;15.50;59.00;;;;;;5053956;28;19956;-64
2023/06/01 00:58:37;;;;;;;;;;;15.50;58.80;;;;;;5054122;28;19919;-65
2023/06/01 01:01:03;;;;;;;;;;;15.60;58.70;;;;;;5053309;28;19921;-67
2023/06/01 01:03:31;;;;;;;;;;;15.50;58.70;;;;;;5053689;28;20316;-67
2023/06/01 01:06:17;;;;;;;;;;;15.60;58.60;;;;;;5053425;28;20304;-67
2023/06/01 01:08:56;;;;;;;;;;;15.60;58.50;;;;;;5053645;28;19920;-69
2023/06/01 01:11:24;;;;;;;;;;;15.60;58.30;;;;;;5053342;28;20252;-68
2023/06/01 01:13:52;;;;;;;;;;;15.70;58.20;;;;;;5053093;28;20292;-67
2023/06/01 01:16:24;;;;;;;;;;;15.70;58.10;;;;;;5053178;28;19908;-68
2023/06/01 01:18:54;;;;;;;;;;;15.70;58.00;;;;;;5052876;28;20022;-67
2023/06/01 01:21:28;;;;;;;;;;;15.70;57.80;;;;;;5052959;28;19916;-67
2023/06/01 01:23:58;;;;;;;;;;;15.70;57.70;;;;;;5052911;28;20014;-67
2023/06/01 01:26:30;;;;;;;;;;;15.60;57.60;;;;;;5052757;28;19916;-68
2023/06/01 01:29:04;;;;;;;;;;;15.60;57.50;;;;;;5052805;28;19924;-67
2023/06/01 01:31:30;;;;;;;;;;;15.60;57.50;;;;;;5052725;28;19908;-67
2023/06/01 01:33:56;;;;;;;;;;;15.50;57.60;;;;;;5052917;28;19913;-67
2023/06/01 01:36:22;;;;;;;;;;;15.50;57.50;;;;;;5061303;28;20356;-68
2023/06/01 01:38:48;;;;;;;;;;;15.50;57.50;;;;;;5032893;28;19913;-67
2023/06/01 01:41:14;;;;;;;;;;;15.50;57.60;;;;;;5032520;28;20135;-67
2023/06/01 01:43:40;;;;;;;;;;;15.50;57.70;;;;;;5032383;28;20368;-66
2023/06/01 01:46:05;;;;;;;;;;;15.40;57.80;;;;;;5032463;28;19948;-67
2023/06/01 01:48:35;;;;;;;;;;;15.40;57.80;;;;;;5032633;28;19928;-67
2023/06/01 01:51:13;;;;;;;;;;;15.50;57.80;;;;;;5032561;28;19978;-67
2023/06/01 01:53:41;;;;;;;;;;;15.50;57.80;;;;;;5032764;28;20387;-67
2023/06/01 01:56:07;;;;;;;;;;;15.50;57.80;;;;;;5032708;28;20372;-67
2023/06/01 01:58:32;;;;;;;;;;;15.50;57.70;;;;;;5032726;28;19917;-67
2023/06/01 02:00:58;;;;;;;;;;;15.50;57.60;;;;;;5032230;28;19909;-67
2023/06/01 02:03:23;;;;;;;;;;;15.50;57.60;;;;;;5032842;28;20242;-67
2023/06/01 02:05:49;;;;;;;;;;;15.50;57.60;;;;;;5032120;28;20288;-67
2023/06/01 02:08:14;;;;;;;;;;;15.50;57.50;;;;;;5032484;28;20360;-67
2023/06/01 02:10:40;;;;;;;;;;;15.50;57.60;;;;;;5030415;28;20428;-67
2023/06/01 02:13:06;;;;;;;;;;;15.40;57.60;;;;;;5031660;28;20380;-67
2023/06/01 02:15:31;;;;;;;;;;;15.40;57.70;;;;;;5014135;28;19909;-67
2023/06/01 02:17:58;;;;;;;;;;;15.40;57.60;;;;;;5032347;28;19963;-67
2023/06/01 02:20:24;;;;;;;;;;;15.40;57.50;;;;;;5032062;28;20113;-67
2023/06/01 02:22:50;;;;;;;;;;;15.50;57.50;;;;;;5031958;28;20015;-67
2023/06/01 02:25:15;;;;;;;;;;;15.50;57.60;;;;;;5031957;28;19976;-67
2023/06/01 02:27:41;;;;;;;;;;;15.50;57.60;;;;;;5031910;28;19991;-67
2023/06/01 02:30:07;;;;;;;;;;;15.50;57.70;;;;;;5031862;28;19917;-67
2023/06/01 02:32:32;;;;;;;;;;;15.50;57.60;;;;;;5031561;28;20466;-67
2023/06/01 02:34:58;;;;;;;;;;;15.50;57.60;;;;;;5032058;28;19916;-68
2023/06/01 02:37:24;;;;;;;;;;;15.50;57.50;;;;;;5057833;28;19960;-67
2023/06/01 02:39:50;;;;;;;;;;;15.50;57.50;;;;;;5051470;28;19916;-67
2023/06/01 02:42:15;;;;;;;;;;;15.50;57.50;;;;;;5052328;28;19921;-67
2023/06/01 02:44:40;;;;;;;;;;;15.50;57.40;;;;;;5051485;28;19962;-67
2023/06/01 02:47:06;;;;;;;;;;;15.50;57.40;;;;;;5051649;28;20007;-67
2023/06/01 02:49:32;;;;;;;;;;;15.50;57.50;;;;;;5051614;28;19913;-67
2023/06/01 02:51:57;;;;;;;;;;;15.50;57.40;;;;;;5051878;28;19939;-67
2023/06/01 02:54:23;;;;;;;;;;;15.50;57.40;;;;;;5051329;28;20262;-67
2023/06/01 02:56:48;;;;;;;;;;;15.50;57.30;;;;;;5051551;28;20365;-68
2023/06/01 02:59:14;;;;;;;;;;;15.50;57.30;;;;;;5051426;28;19961;-68
2023/06/01 03:01:40;;;;;;;;;;;15.50;57.20;;;;;;5051354;28;19912;-68
2023/06/01 03:04:07;;;;;;;;;;;15.60;57.20;;;;;;5051448;28;19909;-68
2023/06/01 03:06:36;;;;;;;;;;;15.60;57.20;;;;;;5051493;28;20284;-68
2023/06/01 03:09:01;;;;;;;;;;;15.60;57.10;;;;;;5051216;28;20273;-68
2023/06/01 03:11:27;;;;;;;;;;;15.60;57.10;;;;;;5051172;28;19916;-68
2023/06/01 03:13:52;;;;;;;;;;;15.70;57.10;;;;;;5051220;28;19916;-68
2023/06/01 03:16:18;;;;;;;;;;;15.70;57.10;;;;;;5051460;28;19916;-68
2023/06/01 03:18:43;;;;;;;;;;;15.60;56.90;;;;;;5051475;28;20339;-68
2023/06/01 03:21:09;;;;;;;;;;;15.60;57.00;;;;;;5051519;28;19992;-68
2023/06/01 03:23:34;;;;;;;;;;;15.60;56.90;;;;;;5053549;28;19963;-68
2023/06/01 03:26:00;;;;;;;;;;;15.60;56.90;;;;;;5055374;28;19995;-68
2023/06/01 03:28:25;;;;;;;;;;;15.50;56.80;;;;;;5055476;28;20348;-68
2023/06/01 03:30:51;;;;;;;;;;;15.50;56.80;;;;;;5055100;28;19909;-68
2023/06/01 03:33:16;;;;;;;;;;;15.50;56.70;;;;;;5055535;28;19916;-68
2023/06/01 03:35:44;;;;;;;;;;;15.50;56.70;;;;;;5058459;28;19938;-68
2023/06/01 03:38:09;;;;;;;;;;;15.60;56.70;;;;;;5060764;28;19917;-67
2023/06/01 03:40:37;;;;;;;;;;;15.60;56.60;;;;;;5054929;28;20391;-67
2023/06/01 03:43:03;;;;;;;;;;;15.60;56.60;;;;;;5055090;28;20329;-67
2023/06/01 03:45:28;;;;;;;;;;;15.60;56.60;;;;;;5054827;28;20225;-67
2023/06/01 03:47:54;;;;;;;;;;;15.70;56.60;;;;;;5055065;28;19946;-67
2023/06/01 03:50:19;;;;;;;;;;;15.70;56.40;;;;;;5054928;28;19909;-67
2023/06/01 03:52:45;;;;;;;;;;;15.70;56.40;;;;;;5055033;28;19917;-68
2023/06/01 03:55:12;;;;;;;;;;;15.70;56.30;;;;;;5055061;28;19916;-68
2023/06/01 03:57:38;;;;;;;;;;;15.70;56.30;;;;;;5054475;28;19917;-67
2023/06/01 04:00:17;;;;;;;;;;;15.70;56.30;;;;;;5054709;28;19913;-69
2023/06/01 04:02:48;;;;;;;;;;;15.70;56.20;;;;;;5054986;28;20325;-67
2023/06/01 04:05:16;;;;;;;;;;;15.70;56.10;;;;;;5054963;28;20399;-67
2023/06/01 04:07:45;;;;;;;;;;;15.70;56.20;;;;;;5055035;28;19925;-67
2023/06/01 04:10:13;;;;;;;;;;;15.70;56.20;;;;;;5054317;28;19913;-67
2023/06/01 04:12:39;;;;;;;;;;;15.80;56.20;;;;;;5054407;28;19917;-68
2023/06/01 04:15:05;;;;;;;;;;;15.80;56.10;;;;;;5054262;28;19913;-68
2023/06/01 04:17:30;;;;;;;;;;;15.80;56.00;;;;;;5054654;28;19974;-68
2023/06/01 04:19:56;;;;;;;;;;;15.80;55.70;;;;;;5054290;28;20415;-68
2023/06/01 04:22:21;;;;;;;;;;;15.80;55.70;;;;;;5054319;28;19952;-68
2023/06/01 04:24:47;;;;;;;;;;;15.80;55.60;;;;;;5052917;28;19952;-68
2023/06/01 04:27:15;;;;;;;;;;;15.90;55.60;;;;;;5054155;28;19963;-68
2023/06/01 04:29:43;;;;;;;;;;;15.80;55.60;;;;;;5053822;28;20364;-68
2023/06/01 04:32:09;;;;;;;;;;;15.80;55.60;;;;;;5054176;28;19921;-68
2023/06/01 04:34:35;;;;;;;;;;;15.90;55.60;;;;;;5052799;28;19913;-68
2023/06/01 04:37:04;;;;;;;;;;;16.00;55.40;;;;;;5062704;28;19917;-69
2023/06/01 04:39:29;;;;;;;;;;;16.00;55.10;;;;;;5053920;28;19909;-68
2023/06/01 04:41:55;;;;;;;;;;;16.00;54.90;;;;;;5053781;28;19970;-69
2023/06/01 04:44:21;;;;;;;;;;;16.00;55.00;;;;;;5054104;28;19913;-69
2023/06/01 04:46:47;;;;;;;;;;;16.10;55.00;;;;;;5053917;28;19917;-69
2023/06/01 04:49:15;;;;;;;;;;;16.10;54.70;;;;;;5053803;28;19913;-68
2023/06/01 04:51:41;;;;;;;;;;;16.10;54.70;;;;;;5053918;28;19952;-68
2023/06/01 04:54:07;;;;;;;;;;;16.10;54.70;;;;;;5053750;28;19971;-68
2023/06/01 04:56:32;;;;;;;;;;;16.20;54.60;;;;;;5053694;28;19909;-69
2023/06/01 04:58:58;;;;;;;;;;;16.30;54.40;;;;;;5053456;28;19931;-68
2023/06/01 05:01:29;;;;;;;;;;;16.30;54.30;;;;;;5053660;28;20019;-68
2023/06/01 05:03:55;;;;;;;;;;;16.30;54.20;;;;;;5053727;28;19919;-68
2023/06/01 05:06:21;;;;;;;;;;;16.40;54.20;;;;;;5053522;28;19991;-68
2023/06/01 05:08:47;;;;;;;;;;;16.50;53.90;;;;;;5053343;28;20448;-68
2023/06/01 05:11:12;;;;;;;;;;;16.60;53.60;;;;;;5053492;28;20403;-67
2023/06/01 05:13:38;;;;;;;;;;;16.60;53.40;;;;;;5053630;28;20015;-67
2023/06/01 05:16:04;;;;;;;;;;;16.60;53.20;;;;;;5053342;28;20326;-68
2023/06/01 05:18:30;;;;;;;;;;;16.60;53.10;;;;;;5053215;28;19917;-68
2023/06/01 05:20:56;;;;;;;;;;;16.60;53.10;;;;;;5053345;28;19915;-68
2023/06/01 05:23:21;;;;;;;;;;;16.60;53.00;;;;;;5053371;28;20297;-68
2023/06/01 05:25:47;;;;;;;;;;;16.60;52.90;;;;;;5053312;28;20372;-68
2023/06/01 05:28:12;;;;;;;;;;;16.70;52.80;;;;;;5053381;28;19917;-67
2023/06/01 05:30:38;;;;;;;;;;;16.70;52.80;;;;;;5052771;28;20264;-67
2023/06/01 05:33:03;;;;;;;;;;;16.80;52.60;;;;;;5053262;28;19923;-68
2023/06/01 05:35:29;;;;;;;;;;;16.80;52.50;;;;;;5053013;28;19909;-68
2023/06/01 05:37:54;;;;;;;;;;;16.90;52.50;;;;;;5053360;28;20351;-70
2023/06/01 05:40:20;;;;;;;;;;;17.00;52.50;;;;;;5051861;28;20327;-69
2023/06/01 05:42:46;;;;;;;;;;;17.00;52.50;;;;;;5053043;28;20392;-70
2023/06/01 05:45:11;;;;;;;;;;;17.10;52.20;;;;;;5052815;28;19913;-69
2023/06/01 05:47:37;;;;;;;;;;;17.10;52.00;;;;;;5052705;28;19949;-67
2023/06/01 05:50:02;;;;;;;;;;;17.10;51.90;;;;;;5052825;28;19913;-68
2023/06/01 05:52:30;;;;;;;;;;;17.10;52.00;;;;;;5051921;28;21279;-68
2023/06/01 05:54:55;;;;;;;;;;;17.20;51.90;;;;;;5052517;28;19916;-68
2023/06/01 05:57:21;;;;;;;;;;;17.20;51.80;;;;;;5052683;28;19924;-68
2023/06/01 05:59:46;;;;;;;;;;;17.20;51.70;;;;;;5052654;28;19909;-68
2023/06/01 06:02:15;;;;;;;;;;;17.20;51.60;;;;;;5052213;28;19923;-65
2023/06/01 06:04:40;;;;;;;;;;;17.20;51.60;;;;;;5035558;28;19916;-65
2023/06/01 06:07:06;;;;;;;;;;;17.20;51.60;;;;;;5052789;28;19921;-65
2023/06/01 06:09:31;;;;;;;;;;;17.30;51.60;;;;;;5051215;28;20008;-65
2023/06/01 06:11:57;;;;;;;;;;;17.30;51.60;;;;;;5052302;28;20007;-65
2023/06/01 06:14:23;;;;;;;;;;;17.30;51.60;;;;;;5052245;28;20369;-65
2023/06/01 06:16:48;;;;;;;;;;;17.30;51.60;;;;;;5052404;28;19917;-64
2023/06/01 06:19:15;;;;;;;;;;;17.40;51.60;;;;;;5052334;28;19909;-65
2023/06/01 06:21:41;;;;;;;;;;;17.50;51.50;;;;;;5052248;28;20364;-65
2023/06/01 06:24:07;;;;;;;;;;;17.50;51.30;;;;;;5052202;28;19916;-65
2023/06/01 06:26:32;;;;;;;;;;;17.60;51.10;;;;;;5051989;28;19916;-65
2023/06/01 06:28:58;;;;;;;;;;;17.60;51.10;;;;;;5051922;28;20276;-65
2023/06/01 06:31:23;;;;;;;;;;;17.60;51.10;;;;;;5054833;28;19912;-66
2023/06/01 06:33:49;;;;;;;;;;;17.70;50.90;;;;;;5067664;28;20106;-66
2023/06/01 06:36:16;;;;;;;;;;;17.70;50.60;;;;;;5051694;28;19917;-65
2023/06/01 06:38:41;;;;;;;;;;;17.70;50.70;;;;;;5060912;28;19920;-65
2023/06/01 06:41:06;;;;;;;;;;;17.70;50.80;;;;;;5050038;28;20399;-64
2023/06/01 06:43:32;;;;;;;;;;;17.70;50.70;;;;;;5050612;28;20365;-65
2023/06/01 06:45:57;;;;;;;;;;;17.80;50.70;;;;;;5050281;28;19913;-65
2023/06/01 06:48:23;;;;;;;;;;;17.80;50.60;;;;;;5050208;28;19932;-65
2023/06/01 06:50:48;;;;;;;;;;;17.80;50.70;;;;;;5051182;28;20357;-65
2023/06/01 06:53:13;;;;;;;;;;;17.80;50.70;;;;;;5051053;28;19916;-65
2023/06/01 06:55:39;;;;;;;;;;;17.80;50.60;;;;;;5050961;28;19971;-64
2023/06/01 06:58:04;;;;;;;;;;;17.80;50.70;;;;;;5049709;28;19925;-65
2023/06/01 07:00:30;;;;;;;;;;;17.90;50.70;;;;;;5050001;28;19912;-65
2023/06/01 07:02:56;;;;;;;;;;;17.90;50.80;;;;;;5050951;28;20016;-65
2023/06/01 07:05:21;;;;;;;;;;;18.00;50.80;;;;;;5051079;28;19960;-65
2023/06/01 07:07:47;;;;;;;;;;;18.00;50.50;;;;;;5049958;28;19982;-65
2023/06/01 07:10:12;;;;;;;;;;;17.90;50.50;;;;;;5049816;28;20403;-64
2023/06/01 07:12:38;;;;;;;;;;;17.90;50.60;;;;;;5050588;28;19921;-64
2023/06/01 07:15:03;;;;;;;;;;;18.00;50.70;;;;;;5047242;28;19928;-65
2023/06/01 07:17:29;;;;;;;;;;;18.10;50.70;;;;;;5050562;28;19971;-66
2023/06/01 07:19:54;;;;;;;;;;;18.20;50.40;;;;;;5046162;28;19924;-65
2023/06/01 07:22:21;;;;;;;;;;;18.30;50.10;;;;;;5046748;28;19916;-65
2023/06/01 07:24:47;;;;;;;;;;;18.30;49.90;;;;;;5043011;28;20042;-64
2023/06/01 07:27:13;;;;;;;;;;;18.30;50.00;;;;;;5043853;28;20450;-64
2023/06/01 07:29:38;;;;;;;;;;;18.40;50.10;;;;;;5051170;28;20015;-65
2023/06/01 07:32:05;;;;;;;;;;;18.40;49.90;;;;;;5047600;28;20014;-65
2023/06/01 07:34:33;;;;;;;;;;;18.50;49.90;;;;;;5047145;28;19909;-67
2023/06/01 07:36:58;;;;;;;;;;;18.60;49.70;;;;;;5052589;28;19916;-64
2023/06/01 07:39:24;;;;;;;;;;;18.60;49.70;;;;;;5050049;28;19920;-65
2023/06/01 07:41:53;;;;;;;;;;;18.70;49.80;;;;;;5051067;28;19917;-64
2023/06/01 07:44:19;;;;;;;;;;;18.80;49.60;;;;;;5049395;28;19912;-66
2023/06/01 07:46:45;;;;;;;;;;;18.90;49.20;;;;;;5039083;28;19921;-65
2023/06/01 07:49:13;;;;;;;;;;;18.90;48.90;;;;;;5069497;28;19935;-65
2023/06/01 07:51:39;;;;;;;;;;;19.00;49.10;;;;;;5048781;28;19912;-65
2023/06/01 07:54:05;;;;;;;;;;;19.20;48.70;;;;;;5049690;28;20327;-66
2023/06/01 07:56:30;;;;;;;;;;;19.20;48.60;;;;;;5050238;28;19909;-66
2023/06/01 07:58:56;;;;;;;;;;;19.30;48.50;;;;;;5049073;28;20341;-67
2023/06/01 08:01:21;;;;;;;;;;;19.30;48.20;;;;;;5048716;28;20252;-65
2023/06/01 08:03:47;;;;;;;;;;;19.40;48.30;;;;;;5049774;28;19920;-65
2023/06/01 08:06:14;;;;;;;;;;;19.50;48.20;;;;;;5051064;28;19978;-65
2023/06/01 08:08:40;;;;;;;;;;;19.60;48.20;;;;;;5050882;28;20273;-65
2023/06/01 08:11:06;;;;;;;;;;;19.80;48.00;;;;;;5048132;28;19920;-65
2023/06/01 08:13:31;;;;;;;;;;;19.80;47.70;;;;;;5054707;28;19924;-65
2023/06/01 08:15:56;;;;;;;;;;;19.80;47.20;;;;;;5053582;28;20011;-65
2023/06/01 08:18:23;;;;;;;;;;;19.80;47.00;;;;;;5053989;28;20011;-66
2023/06/01 08:20:48;;;;;;;;;;;19.70;47.10;;;;;;5051286;28;19948;-65
2023/06/01 08:23:16;;;;;;;;;;;19.70;47.30;;;;;;5054817;28;19987;-65
2023/06/01 08:25:42;;;;;;;;;;;19.70;47.40;;;;;;5054264;28;19913;-66
2023/06/01 08:28:08;;;;;;;;;;;19.80;47.50;;;;;;5054248;28;19927;-65
2023/06/01 08:30:33;;;;;;;;;;;19.90;47.40;;;;;;5050737;28;19909;-65
2023/06/01 08:32:59;;;;;;;;;;;20.00;47.20;;;;;;5054269;28;19917;-65
2023/06/01 08:35:25;;;;;;;;;;;20.00;46.80;;;;;;5054618;28;20003;-66
2023/06/01 08:37:50;;;;;;;;;;;20.00;46.80;;;;;;5073562;28;19917;-66
2023/06/01 08:40:16;;;;;;;;;;;20.10;46.90;;;;;;5050938;28;19915;-65
2023/06/01 08:42:45;;;;;;;;;;;20.20;46.60;;;;;;5054323;28;19954;-65
2023/06/01 08:45:11;;;;;;;;;;;20.20;46.50;;;;;;5053806;28;19909;-65
2023/06/01 08:47:37;;;;;;;;;;;20.30;46.60;;;;;;5053988;28;20475;-66
2023/06/01 08:50:03;;;;;;;;;;;20.50;46.40;;;;;;5050645;28;19920;-65
2023/06/01 08:52:31;;;;;;;;;;;20.60;46.40;;;;;;5069191;28;20296;-65
2023/06/01 08:55:00;;;;;;;;;;;20.70;46.20;;;;;;5053510;28;19909;-65
2023/06/01 08:57:26;;;;;;;;;;;20.80;45.80;;;;;;5053203;28;19929;-66
2023/06/01 08:59:52;;;;;;;;;;;20.80;45.70;;;;;;5050117;28;19916;-65
2023/06/01 09:02:17;;;;;;;;;;;20.80;45.60;;;;;;5053766;28;19960;-67
2023/06/01 09:04:44;;;;;;;;;;;20.80;45.60;;;;;;5052402;28;19915;-67
2023/06/01 09:07:13;;;;;;;;;;;20.90;45.70;;;;;;5052798;28;19916;-65
2023/06/01 09:09:38;;;;;;;;;;;21.00;45.60;;;;;;5049621;28;19913;-66
2023/06/01 09:12:24;;;;;;;;;;;21.10;45.60;;;;;;5053319;28;19920;-65
2023/06/01 09:14:49;;;;;;;;;;;21.20;45.30;;;;;;5052969;28;20287;-65
2023/06/01 09:17:21;;;;;;;;;;;21.20;45.30;;;;;;5055761;28;19921;-65
2023/06/01 09:19:47;;;;;;;;;;;21.20;45.30;;;;;;5049093;28;20011;-66
2023/06/01 09:22:12;;;;;;;;;;;21.20;45.20;;;;;;5051269;28;20358;-65
2023/06/01 09:24:38;;;;;;;;;;;21.30;45.10;;;;;;5051812;28;19921;-65
2023/06/01 09:27:04;;;;;;;;;;;21.30;44.90;;;;;;5041140;28;19917;-65
2023/06/01 09:29:29;;;;;;;;;;;21.30;45.20;;;;;;5041654;28;19929;-65
2023/06/01 09:31:55;;;;;;;;;;;21.50;45.20;;;;;;5052698;28;19921;-66
2023/06/01 09:34:21;;;;;;;;;;;21.70;44.80;;;;;;5059518;28;19909;-66
2023/06/01 09:36:50;;;;;;;;;;;21.70;44.50;;;;;;5054975;28;19966;-66
2023/06/01 09:39:17;;;;;;;;;;;21.90;44.60;;;;;;5044401;28;19981;-66
2023/06/01 09:41:49;;;;;;;;;;;22.20;44.10;;;;;;5051726;28;19970;-66
2023/06/01 09:44:21;;;;;;;;;;;22.20;43.40;;;;;;5046051;28;19923;-65
2023/06/01 09:46:48;;;;;;;;;;;22.30;43.50;;;;;;5050313;28;19917;-66
2023/06/01 09:49:24;;;;;;;;;;;22.40;43.40;;;;;;5051906;28;20368;-68
2023/06/01 09:51:50;;;;;;;;;;;22.50;43.30;;;;;;5052722;28;20310;-66
2023/06/01 09:54:25;;;;;;;;;;;22.60;42.70;;;;;;5051181;28;19913;-66
2023/06/01 09:56:51;;;;;;;;;;;22.50;42.40;;;;;;5048850;28;19924;-67
2023/06/01 09:59:17;;;;;;;;;;;22.40;42.40;;;;;;5042294;28;19963;-67
2023/06/01 10:01:43;;;;;;;;;;;22.40;42.70;;;;;;5042017;28;19960;-66
2023/06/01 10:04:10;;;;;;;;;;;22.40;42.70;;;;;;5041015;28;20380;-66
2023/06/01 10:06:38;;;;;;;;;;;22.50;42.50;;;;;;5052404;28;19909;-66
2023/06/01 10:09:06;;;;;;;;;;;22.50;42.50;;;;;;5049530;28;19913;-66
2023/06/01 10:11:32;;;;;;;;;;;22.50;42.50;;;;;;5050071;28;20383;-66
2023/06/01 10:13:57;;;;;;;;;;;22.50;42.60;;;;;;5051153;28;19909;-67
2023/06/01 10:16:23;;;;;;;;;;;22.70;42.50;;;;;;5050345;28;19913;-64
2023/06/01 10:18:50;;;;;;;;;;;22.90;42.40;;;;;;5051139;28;19920;-66
2023/06/01 10:21:16;;;;;;;;;;;23.10;42.20;;;;;;5049124;28;20009;-64
2023/06/01 10:23:42;;;;;;;;;;;23.10;41.50;;;;;;5050707;28;19928;-65
2023/06/01 10:26:12;;;;;;;;;;;23.00;41.60;;;;;;5049110;28;19916;-64
2023/06/01 10:28:38;;;;;;;;;;;22.80;41.50;;;;;;5051661;28;20003;-64
2023/06/01 10:31:22;;;;;;;;;;;22.70;41.80;;;;;;5051891;28;20051;-64
2023/06/01 10:33:57;;;;;;;;;;;22.70;41.90;;;;;;5051467;28;19917;-64
2023/06/01 10:36:23;;;;;;;;;;;22.60;42.10;;;;;;5060664;28;19909;-65
2023/06/01 10:38:48;;;;;;;;;;;22.60;42.40;;;;;;5072387;28;19915;-65
2023/06/01 10:41:28;;;;;;;;;;;22.70;42.30;;;;;;5071804;28;19909;-65
2023/06/01 10:43:53;;;;;;;;;;;22.70;42.30;;;;;;5072445;28;19921;-66
2023/06/01 10:46:35;;;;;;;;;;;22.90;42.50;;;;;;5072199;28;20387;-65
2023/06/01 10:49:02;;;;;;;;;;;23.00;41.90;;;;;;5031883;28;19921;-66
2023/06/01 10:51:28;;;;;;;;;;;23.00;42.20;;;;;;5032071;28;19938;-66
2023/06/01 10:53:54;;;;;;;;;;;23.20;42.00;;;;;;5047118;28;20296;-65
2023/06/01 10:56:24;;;;;;;;;;;23.20;41.70;;;;;;5052081;28;19909;-65
2023/06/01 10:59:08;;;;;;;;;;;23.20;41.40;;;;;;5049683;28;19924;-66
2023/06/01 11:01:37;;;;;;;;;;;23.30;41.60;;;;;;5052194;28;20366;-65
2023/06/01 11:04:03;;;;;;;;;;;23.40;41.50;;;;;;5051294;28;19916;-67
2023/06/01 11:06:31;;;;;;;;;;;23.50;41.30;;;;;;5051705;28;19909;-66
2023/06/01 11:09:00;;;;;;;;;;;23.60;41.30;;;;;;5051883;28;20446;-66
2023/06/01 11:11:45;;;;;;;;;;;23.70;40.90;;;;;;5050318;28;19964;-65
2023/06/01 11:14:11;;;;;;;;;;;23.60;41.10;;;;;;5051652;28;19916;-65
2023/06/01 11:16:37;;;;;;;;;;;23.80;40.90;;;;;;5050657;28;20317;-65
2023/06/01 11:19:03;;;;;;;;;;;23.80;40.70;;;;;;5051712;28;19950;-69
2023/06/01 11:21:39;;;;;;;;;;;23.80;40.60;;;;;;5050552;28;20042;-68
2023/06/01 11:24:07;;;;;;;;;;;23.80;40.80;;;;;;5050411;28;19923;-68
2023/06/01 11:26:35;;;;;;;;;;;23.80;40.50;;;;;;5050420;28;19913;-68
2023/06/01 11:29:20;;;;;;;;;;;23.80;40.60;;;;;;5051353;28;20354;-70
2023/06/01 11:31:46;;;;;;;;;;;23.80;40.40;;;;;;5051776;28;19916;-68
2023/06/01 11:34:12;;;;;;;;;;;23.70;40.20;;;;;;5040563;28;20007;-68
2023/06/01 11:36:38;;;;;;;;;;;23.50;40.20;;;;;;5065664;28;19916;-69
2023/06/01 11:39:07;;;;;;;;;;;23.40;40.90;;;;;;5071427;28;20272;-69
2023/06/01 11:41:33;;;;;;;;;;;23.40;41.20;;;;;;5065501;28;19913;-69
2023/06/01 11:43:59;;;;;;;;;;;23.40;41.00;;;;;;5052552;28;19923;-69
2023/06/01 11:46:26;;;;;;;;;;;23.30;41.10;;;;;;5055091;28;19966;-69
2023/06/01 11:49:02;;;;;;;;;;;23.30;41.30;;;;;;5054045;28;19987;-69
2023/06/01 11:51:28;;;;;;;;;;;23.40;41.40;;;;;;5055000;28;20372;-71
2023/06/01 11:53:55;;;;;;;;;;;23.50;41.40;;;;;;5054472;28;19913;-69
2023/06/01 11:56:27;;;;;;;;;;;23.50;41.10;;;;;;5055037;28;19916;-69
2023/06/01 11:58:56;;;;;;;;;;;23.50;41.00;;;;;;5053962;28;20382;-69
2023/06/01 12:01:22;;;;;;;;;;;23.50;40.90;;;;;;5054594;28;19908;-64
2023/06/01 12:03:47;;;;;;;;;;;23.60;41.10;;;;;;5054759;28;19916;-65
2023/06/01 12:06:19;;;;;;;;;;;23.70;41.10;;;;;;5050649;28;20319;-66
2023/06/01 12:08:44;;;;;;;;;;;23.70;41.00;;;;;;5054582;28;19921;-66
2023/06/01 12:11:11;;;;;;;;;;;23.70;41.10;;;;;;5054035;28;19913;-65
2023/06/01 12:13:37;;;;;;;;;;;23.70;40.90;;;;;;5054914;28;20379;-66
2023/06/01 12:16:02;;;;;;;;;;;23.70;40.80;;;;;;5061724;28;19999;-65
2023/06/01 12:18:30;;;;;;;;;;;23.80;40.80;;;;;;5068269;28;19921;-66
2023/06/01 12:20:55;;;;;;;;;;;23.80;40.60;;;;;;5054538;28;19913;-65
2023/06/01 12:23:21;;;;;;;;;;;23.60;40.40;;;;;;5052623;28;20080;-66
2023/06/01 12:25:53;;;;;;;;;;;23.50;40.70;;;;;;5053701;28;19913;-66
2023/06/01 12:28:19;;;;;;;;;;;23.40;40.90;;;;;;5054578;28;19921;-65
2023/06/01 12:30:46;;;;;;;;;;;23.20;41.20;;;;;;5051025;28;19962;-65
2023/06/01 12:33:34;;;;;;;;;;;23.30;41.40;;;;;;5053697;28;20431;-66
2023/06/01 12:36:00;;;;;;;;;;;23.40;41.50;;;;;;5059865;28;19908;-66
2023/06/01 12:38:26;;;;;;;;;;;23.50;41.30;;;;;;5062063;28;20320;-66
2023/06/01 12:41:11;;;;;;;;;;;23.50;41.10;;;;;;5052933;28;20032;-66
2023/06/01 12:43:44;;;;;;;;;;;23.30;41.10;;;;;;5053797;28;19921;-66
2023/06/01 12:46:18;;;;;;;;;;;23.30;41.50;;;;;;5050495;28;19923;-66
2023/06/01 12:48:44;;;;;;;;;;;23.40;41.50;;;;;;5054548;28;20350;-66
2023/06/01 12:51:10;;;;;;;;;;;23.70;41.40;;;;;;5054535;28;20365;-66
2023/06/01 12:53:36;;;;;;;;;;;23.80;40.90;;;;;;5053213;28;20340;-66
2023/06/01 12:56:02;;;;;;;;;;;24.00;40.70;;;;;;5051802;28;19913;-66
2023/06/01 12:58:28;;;;;;;;;;;24.10;40.60;;;;;;5054214;28;19916;-66
2023/06/01 13:00:53;;;;;;;;;;;24.30;40.40;;;;;;5053740;28;19991;-66
2023/06/01 13:03:20;;;;;;;;;;;24.40;40.20;;;;;;5054100;28;19960;-67
2023/06/01 13:05:46;;;;;;;;;;;24.60;39.70;;;;;;5053778;28;19913;-66
2023/06/01 13:08:15;;;;;;;;;;;24.60;39.40;;;;;;5052619;28;20288;-66
2023/06/01 13:10:41;;;;;;;;;;;24.60;38.80;;;;;;5052533;28;20271;-66
2023/06/01 13:13:07;;;;;;;;;;;24.60;39.00;;;;;;5052920;28;19923;-65
2023/06/01 13:15:33;;;;;;;;;;;24.50;39.00;;;;;;5052110;28;19913;-65
2023/06/01 13:17:58;;;;;;;;;;;24.50;38.70;;;;;;5053295;28;19924;-65
2023/06/01 13:20:24;;;;;;;;;;;24.60;38.90;;;;;;5053411;28;19920;-66
2023/06/01 13:22:49;;;;;;;;;;;24.80;39.00;;;;;;5053798;28;19913;-65
2023/06/01 13:25:14;;;;;;;;;;;24.80;38.80;;;;;;5052045;28;19924;-65
2023/06/01 13:27:40;;;;;;;;;;;24.90;38.50;;;;;;5052468;28;19931;-65
2023/06/01 13:30:06;;;;;;;;;;;24.80;38.50;;;;;;5052914;28;19959;-65
2023/06/01 13:32:32;;;;;;;;;;;24.80;38.50;;;;;;5052042;28;19917;-65
2023/06/01 13:34:57;;;;;;;;;;;24.80;38.40;;;;;;5053125;28;19913;-66
2023/06/01 13:37:23;;;;;;;;;;;24.70;38.60;;;;;;5070605;28;20038;-66
2023/06/01 13:39:49;;;;;;;;;;;24.80;38.60;;;;;;5057188;28;19916;-66
2023/06/01 13:42:16;;;;;;;;;;;24.80;38.20;;;;;;5052747;28;19924;-65
2023/06/01 13:44:45;;;;;;;;;;;24.80;37.90;;;;;;5051643;28;20258;-66
2023/06/01 13:47:11;;;;;;;;;;;24.70;38.20;;;;;;5050431;28;20062;-65
2023/06/01 13:49:36;;;;;;;;;;;24.70;38.30;;;;;;5051649;28;19952;-65
2023/06/01 13:52:02;;;;;;;;;;;24.50;38.30;;;;;;5051420;28;19927;-65
2023/06/01 13:54:28;;;;;;;;;;;24.30;38.70;;;;;;5052540;28;20375;-66
2023/06/01 13:56:54;;;;;;;;;;;24.30;39.10;;;;;;5052706;28;19916;-66
2023/06/01 13:59:20;;;;;;;;;;;24.30;39.30;;;;;;5055286;28;20383;-66
2023/06/01 14:01:45;;;;;;;;;;;24.30;39.30;;;;;;5054065;28;20356;-65
2023/06/01 14:04:11;;;;;;;;;;;24.30;39.20;;;;;;5069318;28;19916;-66
2023/06/01 14:06:36;;;;;;;;;;;24.20;39.20;;;;;;5052070;28;19917;-65
2023/06/01 14:09:01;;;;;;;;;;;24.20;39.20;;;;;;5052323;28;20354;-65
2023/06/01 14:11:27;;;;;;;;;;;24.10;39.50;;;;;;5050911;28;19908;-67
2023/06/01 14:13:52;;;;;;;;;;;24.00;39.70;;;;;;5049650;28;19917;-66